Time,TemperatureF,DewpointF,PressureIn,WindDirection,WindDirectionDegrees,WindSpeedMPH,WindSpeedGustMPH,Humidity,HourlyPrecipIn,Conditions,Clouds,dailyrainin,SolarRadiationWatts/m^2,SoftwareType,DateUTC
2013-06-05 00:03:00,57.0,55.0,-100.00,South,169,0.0,0.0,94,0.00,,,0.00,0.000000,,2013-06-05 04:03:00,
2013-06-05 00:13:00,57.0,55.0,-100.00,South,169,0.0,0.0,94,0.00,,,0.00,0.000000,,2013-06-05 04:13:00,
2013-06-05 00:42:00,57.0,53.0,-100.00,South,183,0.0,3.0,87,0.00,,,0.00,0.000000,,2013-06-05 04:42:00,
2013-06-05 00:53:00,57.0,53.0,-100.00,South,183,0.0,3.0,87,0.00,,,0.00,0.000000,,2013-06-05 04:53:00,
2013-06-05 01:02:00,57.0,53.0,-100.00,South,183,0.0,3.0,87,0.00,,,0.00,0.000000,,2013-06-05 05:02:00,
2013-06-05 01:12:00,57.0,53.0,-100.00,South,183,0.0,3.0,87,0.00,,,0.00,0.000000,,2013-06-05 05:12:00,
2013-06-05 01:22:00,57.0,53.0,-100.00,South,183,0.0,3.0,87,0.00,,,0.00,0.000000,,2013-06-05 05:22:00,
2013-06-05 01:42:00,54.0,54.0,-100.00,ESE,108,0.0,0.0,100,0.00,,,0.00,0.000000,,2013-06-05 05:42:00,
2013-06-05 01:53:00,54.0,54.0,-100.00,ESE,108,0.0,0.0,100,0.00,,,0.00,0.000000,,2013-06-05 05:53:00,
2013-06-05 02:02:00,54.0,54.0,-100.00,ESE,108,0.0,0.0,100,0.00,,,0.00,0.000000,,2013-06-05 06:02:00,
2013-06-05 02:12:00,54.0,54.0,-100.00,ESE,108,0.0,0.0,100,0.00,,,0.00,0.000000,,2013-06-05 06:12:00,
2013-06-05 02:22:00,54.0,54.0,-100.00,ESE,108,0.0,0.0,100,0.00,,,0.00,0.000000,,2013-06-05 06:22:00,
2013-06-05 02:42:00,52.0,52.0,-100.00,East,85,0.0,0.0,100,0.00,,,0.00,0.000000,,2013-06-05 06:42:00,
2013-06-05 02:52:00,52.0,52.0,-100.00,East,85,0.0,0.0,100,0.00,,,0.00,0.000000,,2013-06-05 06:52:00,
2013-06-05 03:02:00,52.0,52.0,-100.00,East,85,0.0,0.0,100,0.00,,,0.00,0.000000,,2013-06-05 07:02:00,
2013-06-05 03:12:00,52.0,52.0,-100.00,East,85,0.0,0.0,100,0.00,,,0.00,0.000000,,2013-06-05 07:12:00,
2013-06-05 03:22:00,52.0,52.0,-100.00,East,85,0.0,0.0,100,0.00,,,0.00,0.000000,,2013-06-05 07:22:00,
2013-06-05 03:42:00,51.0,51.0,-100.00,East,99,0.0,0.0,100,0.00,,,0.00,0.000000,,2013-06-05 07:42:00,
2013-06-05 03:52:00,51.0,51.0,-100.00,East,99,0.0,0.0,100,0.00,,,0.00,0.000000,,2013-06-05 07:52:00,
2013-06-05 04:02:00,51.0,51.0,-100.00,East,99,0.0,0.0,100,0.00,,,0.00,0.000000,,2013-06-05 08:02:00,
2013-06-05 04:12:00,51.0,51.0,-100.00,East,99,0.0,0.0,100,0.00,,,0.00,0.000000,,2013-06-05 08:12:00,
2013-06-05 04:22:00,51.0,51.0,-100.00,East,99,0.0,0.0,100,0.00,,,0.00,0.000000,,2013-06-05 08:22:00,
2013-06-05 04:42:00,50.0,50.0,-100.00,ESE,104,0.0,0.0,100,0.00,,,0.00,0.000000,,2013-06-05 08:42:00,
2013-06-05 04:52:00,50.0,50.0,-100.00,ESE,104,0.0,0.0,100,0.00,,,0.00,0.000000,,2013-06-05 08:52:00,
2013-06-05 05:02:00,50.0,50.0,-100.00,ESE,104,0.0,0.0,100,0.00,,,0.00,0.000000,,2013-06-05 09:02:00,
2013-06-05 05:12:00,50.0,50.0,-100.00,ESE,104,0.0,0.0,100,0.00,,,0.00,0.000000,,2013-06-05 09:12:00,
2013-06-05 05:22:00,50.0,50.0,-100.00,ESE,104,0.0,0.0,100,0.00,,,0.00,0.000000,,2013-06-05 09:22:00,
2013-06-05 05:43:00,50.0,50.0,-100.00,East,90,0.0,0.0,100,0.00,,,0.00,0.000000,,2013-06-05 09:43:00,
2013-06-05 05:53:00,50.0,50.0,-100.00,East,90,0.0,0.0,100,0.00,,,0.00,0.000000,,2013-06-05 09:53:00,
2013-06-05 06:03:00,50.0,50.0,-100.00,East,90,0.0,0.0,100,0.00,,,0.00,0.000000,,2013-06-05 10:03:00,
2013-06-05 06:12:00,50.0,50.0,-100.00,East,90,0.0,0.0,100,0.00,,,0.00,0.000000,,2013-06-05 10:12:00,
2013-06-05 06:22:00,50.0,50.0,-100.00,East,90,0.0,0.0,100,0.00,,,0.00,0.000000,,2013-06-05 10:22:00,
2013-06-05 06:43:00,49.0,49.0,-100.00,East,92,0.0,0.0,100,0.00,,,0.00,2.000000,,2013-06-05 10:43:00,
2013-06-05 06:53:00,49.0,49.0,-100.00,East,92,0.0,0.0,100,0.00,,,0.00,2.000000,,2013-06-05 10:53:00,
2013-06-05 07:02:00,49.0,49.0,-100.00,East,92,0.0,0.0,100,0.00,,,0.00,2.000000,,2013-06-05 11:02:00,
2013-06-05 07:12:00,49.0,49.0,-100.00,East,92,0.0,0.0,100,0.00,,,0.00,2.000000,,2013-06-05 11:12:00,
2013-06-05 07:22:00,49.0,49.0,-100.00,East,92,0.0,0.0,100,0.00,,,0.00,2.000000,,2013-06-05 11:22:00,
2013-06-05 07:42:00,50.0,50.0,-100.00,ESE,110,0.0,0.0,100,0.00,,,0.00,29.000000,,2013-06-05 11:42:00,
2013-06-05 07:52:00,50.0,50.0,-100.00,ESE,110,0.0,0.0,100,0.00,,,0.00,29.000000,,2013-06-05 11:52:00,
2013-06-05 08:02:00,50.0,50.0,-100.00,ESE,110,0.0,0.0,100,0.00,,,0.00,29.000000,,2013-06-05 12:02:00,
2013-06-05 08:12:00,50.0,50.0,-100.00,ESE,110,0.0,0.0,100,0.00,,,0.00,29.000000,,2013-06-05 12:12:00,
2013-06-05 08:22:00,50.0,50.0,-100.00,ESE,110,0.0,0.0,100,0.00,,,0.00,29.000000,,2013-06-05 12:22:00,
2013-06-05 08:44:00,57.0,57.0,-100.00,ESE,103,0.0,0.0,100,0.00,,,0.00,138.000000,,2013-06-05 12:44:00,
2013-06-05 08:52:00,57.0,57.0,-100.00,ESE,103,0.0,0.0,100,0.00,,,0.00,138.000000,,2013-06-05 12:52:00,
2013-06-05 09:12:00,57.0,57.0,-100.00,ESE,103,0.0,0.0,100,0.00,,,0.00,138.000000,,2013-06-05 13:12:00,
2013-06-05 09:22:00,57.0,57.0,-100.00,ESE,103,0.0,0.0,100,0.00,,,0.00,138.000000,,2013-06-05 13:22:00,
2013-06-05 09:42:00,67.0,61.0,-100.00,East,98,0.0,0.0,81,0.00,,,0.00,387.000000,,2013-06-05 13:42:00,
2013-06-05 09:53:00,67.0,61.0,-100.00,East,98,0.0,0.0,81,0.00,,,0.00,387.000000,,2013-06-05 13:53:00,
2013-06-05 10:42:00,72.0,58.0,-100.00,SE,127,0.0,0.0,61,0.00,,,0.00,564.000000,,2013-06-05 14:42:00,
2013-06-05 10:52:00,72.0,58.0,-100.00,SE,127,0.0,0.0,61,0.00,,,0.00,564.000000,,2013-06-05 14:52:00,
2013-06-05 11:03:00,72.0,58.0,-100.00,SE,127,0.0,0.0,61,0.00,,,0.00,564.000000,,2013-06-05 15:03:00,
2013-06-05 11:12:00,72.0,58.0,-100.00,SE,127,0.0,0.0,61,0.00,,,0.00,564.000000,,2013-06-05 15:12:00,
2013-06-05 11:22:00,72.0,58.0,-100.00,SE,127,0.0,0.0,61,0.00,,,0.00,564.000000,,2013-06-05 15:22:00,
2013-06-05 11:23:00,76.0,57.0,-100.00,East,93,2.0,6.0,52,0.00,,,0.00,695.000000,,2013-06-05 15:23:00,
2013-06-05 11:43:00,76.0,57.0,-100.00,East,93,2.0,6.0,52,0.00,,,0.00,695.000000,,2013-06-05 15:43:00,
2013-06-05 11:53:00,76.0,57.0,-100.00,East,93,2.0,6.0,52,0.00,,,0.00,695.000000,,2013-06-05 15:53:00,
2013-06-05 12:04:00,76.0,57.0,-100.00,East,93,2.0,6.0,52,0.00,,,0.00,695.000000,,2013-06-05 16:04:00,
2013-06-05 12:13:00,76.0,57.0,-100.00,East,93,2.0,6.0,52,0.00,,,0.00,695.000000,,2013-06-05 16:13:00,
2013-06-05 12:42:00,77.0,56.0,-100.00,ESE,115,3.0,8.0,49,0.00,,,0.00,819.000000,,2013-06-05 16:42:00,
2013-06-05 12:54:00,77.0,56.0,-100.00,ESE,115,3.0,8.0,49,0.00,,,0.00,819.000000,,2013-06-05 16:54:00,
2013-06-05 13:02:00,77.0,56.0,-100.00,ESE,115,3.0,8.0,49,0.00,,,0.00,819.000000,,2013-06-05 17:02:00,
2013-06-05 13:13:00,77.0,56.0,-100.00,ESE,115,3.0,8.0,49,0.00,,,0.00,819.000000,,2013-06-05 17:13:00,
2013-06-05 13:22:00,77.0,56.0,-100.00,ESE,115,3.0,8.0,49,0.00,,,0.00,819.000000,,2013-06-05 17:22:00,
2013-06-05 13:43:00,80.0,57.0,-100.00,NE,53,2.0,6.0,45,0.00,,,0.00,876.000000,,2013-06-05 17:43:00,
2013-06-05 13:52:00,80.0,57.0,-100.00,NE,53,2.0,6.0,45,0.00,,,0.00,876.000000,,2013-06-05 17:52:00,
2013-06-05 14:02:00,80.0,57.0,-100.00,NE,53,2.0,6.0,45,0.00,,,0.00,876.000000,,2013-06-05 18:02:00,
2013-06-05 14:13:00,80.0,57.0,-100.00,NE,53,2.0,6.0,45,0.00,,,0.00,876.000000,,2013-06-05 18:13:00,
2013-06-05 14:22:00,80.0,57.0,-100.00,NE,53,2.0,6.0,45,0.00,,,0.00,876.000000,,2013-06-05 18:22:00,
2013-06-05 14:23:00,81.0,58.0,-100.00,North,351,2.0,6.0,45,0.00,,,0.00,873.000000,,2013-06-05 18:23:00,
2013-06-05 14:42:00,81.0,58.0,-100.00,North,351,2.0,6.0,45,0.00,,,0.00,873.000000,,2013-06-05 18:42:00,
2013-06-05 14:52:00,81.0,58.0,-100.00,North,351,2.0,6.0,45,0.00,,,0.00,873.000000,,2013-06-05 18:52:00,
2013-06-05 15:03:00,81.0,58.0,-100.00,North,351,2.0,6.0,45,0.00,,,0.00,873.000000,,2013-06-05 19:03:00,
2013-06-05 15:13:00,81.0,58.0,-100.00,North,351,2.0,6.0,45,0.00,,,0.00,873.000000,,2013-06-05 19:13:00,
2013-06-05 15:23:00,83.0,59.0,-100.00,NNE,33,2.0,6.0,45,0.00,,,0.00,852.000000,,2013-06-05 19:23:00,
2013-06-05 15:42:00,83.0,59.0,-100.00,NNE,33,2.0,6.0,45,0.00,,,0.00,852.000000,,2013-06-05 19:42:00,
2013-06-05 15:53:00,83.0,59.0,-100.00,NNE,33,2.0,6.0,45,0.00,,,0.00,852.000000,,2013-06-05 19:53:00,
2013-06-05 16:03:00,83.0,59.0,-100.00,NNE,33,2.0,6.0,45,0.00,,,0.00,852.000000,,2013-06-05 20:03:00,
2013-06-05 16:12:00,83.0,59.0,-100.00,NNE,33,2.0,6.0,45,0.00,,,0.00,852.000000,,2013-06-05 20:12:00,
2013-06-05 16:42:00,84.0,62.0,-100.00,East,98,2.0,6.0,48,0.00,,,0.00,622.000000,,2013-06-05 20:42:00,
2013-06-05 16:52:00,84.0,62.0,-100.00,East,98,2.0,6.0,48,0.00,,,0.00,622.000000,,2013-06-05 20:52:00,
2013-06-05 17:02:00,84.0,62.0,-100.00,East,98,2.0,6.0,48,0.00,,,0.00,622.000000,,2013-06-05 21:02:00,
2013-06-05 17:12:00,84.0,62.0,-100.00,East,98,2.0,6.0,48,0.00,,,0.00,622.000000,,2013-06-05 21:12:00,
2013-06-05 17:22:00,84.0,62.0,-100.00,East,98,2.0,6.0,48,0.00,,,0.00,622.000000,,2013-06-05 21:22:00,
2013-06-05 17:43:00,85.0,67.0,-100.00,SE,140,1.0,5.0,55,0.00,,,0.00,458.000000,,2013-06-05 21:43:00,
2013-06-05 17:53:00,85.0,67.0,-100.00,SE,140,1.0,5.0,55,0.00,,,0.00,458.000000,,2013-06-05 21:53:00,
2013-06-05 18:43:00,83.0,63.0,-100.00,East,89,1.0,6.0,51,0.00,,,0.00,414.000000,,2013-06-05 22:43:00,
2013-06-05 18:53:00,83.0,63.0,-100.00,East,89,1.0,6.0,51,0.00,,,0.00,414.000000,,2013-06-05 22:53:00,
2013-06-05 19:02:00,83.0,63.0,-100.00,East,89,1.0,6.0,51,0.00,,,0.00,414.000000,,2013-06-05 23:02:00,
2013-06-05 19:12:00,83.0,63.0,-100.00,East,89,1.0,6.0,51,0.00,,,0.00,414.000000,,2013-06-05 23:12:00,
2013-06-05 19:22:00,83.0,63.0,-100.00,East,89,1.0,6.0,51,0.00,,,0.00,414.000000,,2013-06-05 23:22:00,
2013-06-05 19:42:00,77.0,66.0,-100.00,ESE,105,1.0,3.0,68,0.00,,,0.00,269.000000,,2013-06-05 23:42:00,
2013-06-05 19:53:00,77.0,66.0,-100.00,ESE,105,1.0,3.0,68,0.00,,,0.00,269.000000,,2013-06-05 23:53:00,
2013-06-05 20:02:00,77.0,66.0,-100.00,ESE,105,1.0,3.0,68,0.00,,,0.00,269.000000,,2013-06-06 00:02:00,
2013-06-05 20:12:00,77.0,66.0,-100.00,ESE,105,1.0,3.0,68,0.00,,,0.00,269.000000,,2013-06-06 00:12:00,
2013-06-05 20:22:00,77.0,66.0,-100.00,ESE,105,1.0,3.0,68,0.00,,,0.00,269.000000,,2013-06-06 00:22:00,
2013-06-05 20:43:00,72.0,67.0,-100.00,ESE,104,0.0,2.0,84,0.00,,,0.00,69.000000,,2013-06-06 00:43:00,
2013-06-05 20:52:00,72.0,67.0,-100.00,ESE,104,0.0,2.0,84,0.00,,,0.00,69.000000,,2013-06-06 00:52:00,
2013-06-05 21:02:00,72.0,67.0,-100.00,ESE,104,0.0,2.0,84,0.00,,,0.00,69.000000,,2013-06-06 01:02:00,
2013-06-05 21:12:00,72.0,67.0,-100.00,ESE,104,0.0,2.0,84,0.00,,,0.00,69.000000,,2013-06-06 01:12:00,
2013-06-05 21:22:00,72.0,67.0,-100.00,ESE,104,0.0,2.0,84,0.00,,,0.00,69.000000,,2013-06-06 01:22:00,
2013-06-05 21:42:00,69.0,65.0,-100.00,ESE,103,0.0,0.0,87,0.00,,,0.00,7.000000,,2013-06-06 01:42:00,
2013-06-05 21:53:00,69.0,65.0,-100.00,ESE,103,0.0,0.0,87,0.00,,,0.00,7.000000,,2013-06-06 01:53:00,
2013-06-05 22:02:00,69.0,65.0,-100.00,ESE,103,0.0,0.0,87,0.00,,,0.00,7.000000,,2013-06-06 02:02:00,
2013-06-05 22:12:00,69.0,65.0,-100.00,ESE,103,0.0,0.0,87,0.00,,,0.00,7.000000,,2013-06-06 02:12:00,
2013-06-05 22:22:00,69.0,65.0,-100.00,ESE,103,0.0,0.0,87,0.00,,,0.00,7.000000,,2013-06-06 02:22:00,
2013-06-05 23:02:00,68.0,67.0,-100.00,ESE,106,0.0,0.0,95,0.00,,,0.00,0.000000,,2013-06-06 03:02:00,
2013-06-05 23:12:00,68.0,67.0,-100.00,ESE,106,0.0,0.0,95,0.00,,,0.00,0.000000,,2013-06-06 03:12:00,
2013-06-05 23:22:00,68.0,67.0,-100.00,ESE,106,0.0,0.0,95,0.00,,,0.00,0.000000,,2013-06-06 03:22:00,
2013-06-05 23:23:00,67.0,67.0,-100.00,ESE,107,0.0,0.0,99,0.00,,,0.00,0.000000,,2013-06-06 03:23:00,
2013-06-05 23:43:00,67.0,67.0,-100.00,ESE,107,0.0,0.0,99,0.00,,,0.00,0.000000,,2013-06-06 03:43:00,
2013-06-05 23:53:00,67.0,67.0,-100.00,ESE,107,0.0,0.0,99,0.00,,,0.00,0.000000,,2013-06-06 03:53:00,